sensor_id;sensor_type;location;lat;lon;timestamp;P1;durP1;ratioP1;P2;durP2;ratioP2
72728;SDS011;60843;52.062;4.508;2023-02-23T00:01:47;68.50;;;22.58;;
72728;SDS011;60843;52.062;4.508;2023-02-23T00:04:14;67.85;;;23.10;;
72728;SDS011;60843;52.062;4.508;2023-02-23T00:06:40;61.15;;;22.20;;
72728;SDS011;60843;52.062;4.508;2023-02-23T00:09:05;60.10;;;21.73;;
72728;SDS011;60843;52.062;4.508;2023-02-23T00:11:38;67.22;;;22.67;;
72728;SDS011;60843;52.062;4.508;2023-02-23T00:14:03;63.33;;;21.77;;
72728;SDS011;60843;52.062;4.508;2023-02-23T00:16:32;64.90;;;23.50;;
72728;SDS011;60843;52.062;4.508;2023-02-23T00:18:58;63.22;;;21.73;;
72728;SDS011;60843;52.062;4.508;2023-02-23T00:21:28;65.28;;;22.50;;
72728;SDS011;60843;52.062;4.508;2023-02-23T00:23:58;61.20;;;22.10;;
72728;SDS011;60843;52.062;4.508;2023-02-23T00:26:29;67.50;;;22.83;;
72728;SDS011;60843;52.062;4.508;2023-02-23T00:28:58;65.18;;;22.48;;
72728;SDS011;60843;52.062;4.508;2023-02-23T00:31:25;68.45;;;23.23;;
72728;SDS011;60843;52.062;4.508;2023-02-23T00:33:55;60.25;;;21.55;;
72728;SDS011;60843;52.062;4.508;2023-02-23T00:36:24;72.22;;;23.75;;
72728;SDS011;60843;52.062;4.508;2023-02-23T00:38:56;65.07;;;22.65;;
72728;SDS011;60843;52.062;4.508;2023-02-23T00:41:24;67.28;;;22.15;;
72728;SDS011;60843;52.062;4.508;2023-02-23T00:43:52;72.55;;;24.20;;
72728;SDS011;60843;52.062;4.508;2023-02-23T00:46:19;70.88;;;22.70;;
72728;SDS011;60843;52.062;4.508;2023-02-23T00:51:13;65.03;;;21.17;;
72728;SDS011;60843;52.062;4.508;2023-02-23T00:53:40;69.13;;;22.02;;
72728;SDS011;60843;52.062;4.508;2023-02-23T00:56:07;67.45;;;22.98;;
72728;SDS011;60843;52.062;4.508;2023-02-23T00:58:33;69.18;;;22.55;;
72728;SDS011;60843;52.062;4.508;2023-02-23T01:00:59;68.03;;;21.92;;
72728;SDS011;60843;52.062;4.508;2023-02-23T01:03:26;72.05;;;23.60;;
72728;SDS011;60843;52.062;4.508;2023-02-23T01:05:53;67.65;;;23.00;;
72728;SDS011;60843;52.062;4.508;2023-02-23T01:08:19;75.95;;;22.67;;
72728;SDS011;60843;52.062;4.508;2023-02-23T01:10:51;73.80;;;22.40;;
72728;SDS011;60843;52.062;4.508;2023-02-23T01:13:21;75.90;;;23.80;;
72728;SDS011;60843;52.062;4.508;2023-02-23T01:15:48;73.97;;;23.33;;
72728;SDS011;60843;52.062;4.508;2023-02-23T01:20:42;64.97;;;20.30;;
72728;SDS011;60843;52.062;4.508;2023-02-23T01:23:09;66.55;;;22.52;;
72728;SDS011;60843;52.062;4.508;2023-02-23T01:25:38;69.18;;;22.92;;
72728;SDS011;60843;52.062;4.508;2023-02-23T01:28:07;72.75;;;22.33;;
72728;SDS011;60843;52.062;4.508;2023-02-23T01:30:34;67.97;;;22.90;;
72728;SDS011;60843;52.062;4.508;2023-02-23T01:33:05;65.53;;;22.92;;
72728;SDS011;60843;52.062;4.508;2023-02-23T01:35:34;72.70;;;24.42;;
72728;SDS011;60843;52.062;4.508;2023-02-23T01:38:00;73.43;;;22.80;;
72728;SDS011;60843;52.062;4.508;2023-02-23T01:40:27;71.63;;;23.33;;
72728;SDS011;60843;52.062;4.508;2023-02-23T01:42:57;71.95;;;22.35;;
72728;SDS011;60843;52.062;4.508;2023-02-23T01:47:53;71.35;;;22.50;;
72728;SDS011;60843;52.062;4.508;2023-02-23T01:50:21;68.90;;;21.90;;
72728;SDS011;60843;52.062;4.508;2023-02-23T01:52:49;65.03;;;21.88;;
72728;SDS011;60843;52.062;4.508;2023-02-23T01:57:49;74.80;;;23.20;;
72728;SDS011;60843;52.062;4.508;2023-02-23T02:00:18;70.32;;;20.73;;
72728;SDS011;60843;52.062;4.508;2023-02-23T02:02:49;71.25;;;21.90;;
72728;SDS011;60843;52.062;4.508;2023-02-23T02:05:16;76.13;;;22.92;;
72728;SDS011;60843;52.062;4.508;2023-02-23T02:07:44;74.10;;;22.58;;
72728;SDS011;60843;52.062;4.508;2023-02-23T02:10:12;69.82;;;21.95;;
72728;SDS011;60843;52.062;4.508;2023-02-23T02:12:41;71.97;;;22.55;;
72728;SDS011;60843;52.062;4.508;2023-02-23T02:15:09;71.60;;;21.92;;
72728;SDS011;60843;52.062;4.508;2023-02-23T02:23:21;70.93;;;21.98;;
72728;SDS011;60843;52.062;4.508;2023-02-23T02:48:56;78.75;;;22.00;;
72728;SDS011;60843;52.062;4.508;2023-02-23T02:54:01;71.03;;;22.52;;
72728;SDS011;60843;52.062;4.508;2023-02-23T02:56:31;75.10;;;23.83;;
72728;SDS011;60843;52.062;4.508;2023-02-23T02:59:04;78.82;;;21.77;;
72728;SDS011;60843;52.062;4.508;2023-02-23T03:02:12;76.10;;;22.38;;
72728;SDS011;60843;52.062;4.508;2023-02-23T03:04:59;79.55;;;23.08;;
72728;SDS011;60843;52.062;4.508;2023-02-23T03:10:51;70.63;;;22.42;;
72728;SDS011;60843;52.062;4.508;2023-02-23T03:16:26;67.93;;;20.45;;
72728;SDS011;60843;52.062;4.508;2023-02-23T03:19:29;70.35;;;21.90;;
72728;SDS011;60843;52.062;4.508;2023-02-23T03:25:03;72.72;;;20.02;;
72728;SDS011;60843;52.062;4.508;2023-02-23T03:28:14;77.65;;;23.48;;
72728;SDS011;60843;52.062;4.508;2023-02-23T03:31:23;70.63;;;22.23;;
72728;SDS011;60843;52.062;4.508;2023-02-23T03:34:17;120.78;;;34.42;;
72728;SDS011;60843;52.062;4.508;2023-02-23T03:37:03;103.57;;;31.58;;
72728;SDS011;60843;52.062;4.508;2023-02-23T03:39:56;80.45;;;23.73;;
72728;SDS011;60843;52.062;4.508;2023-02-23T03:42:45;78.22;;;23.00;;
72728;SDS011;60843;52.062;4.508;2023-02-23T03:45:30;76.28;;;22.00;;
72728;SDS011;60843;52.062;4.508;2023-02-23T03:48:15;81.05;;;23.25;;
72728;SDS011;60843;52.062;4.508;2023-02-23T03:51:03;71.95;;;21.52;;
72728;SDS011;60843;52.062;4.508;2023-02-23T03:53:50;72.72;;;20.70;;
72728;SDS011;60843;52.062;4.508;2023-02-23T03:56:38;72.05;;;20.40;;
72728;SDS011;60843;52.062;4.508;2023-02-23T03:59:25;80.78;;;21.27;;
72728;SDS011;60843;52.062;4.508;2023-02-23T04:02:13;80.15;;;22.73;;
72728;SDS011;60843;52.062;4.508;2023-02-23T04:05:00;78.45;;;20.80;;
72728;SDS011;60843;52.062;4.508;2023-02-23T04:07:45;79.85;;;22.20;;
72728;SDS011;60843;52.062;4.508;2023-02-23T04:10:31;75.07;;;22.25;;
72728;SDS011;60843;52.062;4.508;2023-02-23T04:13:17;84.30;;;22.63;;
72728;SDS011;60843;52.062;4.508;2023-02-23T04:18:32;77.75;;;21.77;;
72728;SDS011;60843;52.062;4.508;2023-02-23T04:20:58;83.38;;;22.30;;
72728;SDS011;60843;52.062;4.508;2023-02-23T04:23:25;74.90;;;21.02;;
72728;SDS011;60843;52.062;4.508;2023-02-23T04:25:55;81.35;;;22.48;;
72728;SDS011;60843;52.062;4.508;2023-02-23T04:28:22;77.18;;;21.40;;
72728;SDS011;60843;52.062;4.508;2023-02-23T04:30:49;84.47;;;23.48;;
72728;SDS011;60843;52.062;4.508;2023-02-23T04:33:30;76.13;;;22.90;;
72728;SDS011;60843;52.062;4.508;2023-02-23T04:35:56;74.28;;;22.65;;
72728;SDS011;60843;52.062;4.508;2023-02-23T04:38:22;71.60;;;21.45;;
72728;SDS011;60843;52.062;4.508;2023-02-23T04:40:48;68.47;;;19.95;;
72728;SDS011;60843;52.062;4.508;2023-02-23T04:43:14;80.13;;;22.42;;
72728;SDS011;60843;52.062;4.508;2023-02-23T04:45:40;74.28;;;22.00;;
72728;SDS011;60843;52.062;4.508;2023-02-23T04:48:07;78.43;;;22.15;;
72728;SDS011;60843;52.062;4.508;2023-02-23T04:50:34;76.35;;;21.77;;
72728;SDS011;60843;52.062;4.508;2023-02-23T04:53:01;75.32;;;20.73;;
72728;SDS011;60843;52.062;4.508;2023-02-23T04:55:27;65.88;;;19.55;;
72728;SDS011;60843;52.062;4.508;2023-02-23T04:57:57;75.18;;;21.23;;
72728;SDS011;60843;52.062;4.508;2023-02-23T05:00:24;70.82;;;19.83;;
72728;SDS011;60843;52.062;4.508;2023-02-23T05:02:51;67.82;;;20.23;;
72728;SDS011;60843;52.062;4.508;2023-02-23T05:05:17;73.68;;;19.40;;
72728;SDS011;60843;52.062;4.508;2023-02-23T05:07:43;63.03;;;19.10;;
72728;SDS011;60843;52.062;4.508;2023-02-23T05:10:09;66.78;;;19.77;;
72728;SDS011;60843;52.062;4.508;2023-02-23T05:12:35;64.88;;;18.35;;
72728;SDS011;60843;52.062;4.508;2023-02-23T05:15:01;71.93;;;19.40;;
72728;SDS011;60843;52.062;4.508;2023-02-23T05:17:27;65.85;;;17.95;;
72728;SDS011;60843;52.062;4.508;2023-02-23T05:19:52;64.45;;;17.63;;
72728;SDS011;60843;52.062;4.508;2023-02-23T05:22:19;68.60;;;20.00;;
72728;SDS011;60843;52.062;4.508;2023-02-23T05:24:45;83.07;;;22.05;;
72728;SDS011;60843;52.062;4.508;2023-02-23T05:27:11;70.22;;;18.60;;
72728;SDS011;60843;52.062;4.508;2023-02-23T05:29:38;72.03;;;19.63;;
72728;SDS011;60843;52.062;4.508;2023-02-23T05:32:04;73.18;;;19.80;;
72728;SDS011;60843;52.062;4.508;2023-02-23T05:34:30;73.50;;;20.50;;
72728;SDS011;60843;52.062;4.508;2023-02-23T05:37:04;75.63;;;19.90;;
72728;SDS011;60843;52.062;4.508;2023-02-23T05:39:30;72.97;;;20.70;;
72728;SDS011;60843;52.062;4.508;2023-02-23T05:41:56;76.10;;;19.95;;
72728;SDS011;60843;52.062;4.508;2023-02-23T05:44:22;74.72;;;18.90;;
72728;SDS011;60843;52.062;4.508;2023-02-23T05:46:49;67.70;;;19.55;;
72728;SDS011;60843;52.062;4.508;2023-02-23T05:49:14;73.45;;;19.10;;
72728;SDS011;60843;52.062;4.508;2023-02-23T05:51:40;69.78;;;20.02;;
72728;SDS011;60843;52.062;4.508;2023-02-23T05:54:07;75.15;;;19.48;;
72728;SDS011;60843;52.062;4.508;2023-02-23T05:56:34;67.38;;;18.27;;
72728;SDS011;60843;52.062;4.508;2023-02-23T05:59:01;76.75;;;19.75;;
72728;SDS011;60843;52.062;4.508;2023-02-23T06:01:29;72.80;;;19.30;;
72728;SDS011;60843;52.062;4.508;2023-02-23T06:03:58;75.72;;;21.27;;
72728;SDS011;60843;52.062;4.508;2023-02-23T06:06:24;70.45;;;18.52;;
72728;SDS011;60843;52.062;4.508;2023-02-23T06:08:51;68.13;;;18.60;;
72728;SDS011;60843;52.062;4.508;2023-02-23T06:11:17;62.63;;;17.77;;
72728;SDS011;60843;52.062;4.508;2023-02-23T06:13:43;70.93;;;17.60;;
72728;SDS011;60843;52.062;4.508;2023-02-23T06:16:09;72.35;;;18.58;;
72728;SDS011;60843;52.062;4.508;2023-02-23T06:18:34;71.03;;;20.02;;
72728;SDS011;60843;52.062;4.508;2023-02-23T06:21:00;75.07;;;18.70;;
72728;SDS011;60843;52.062;4.508;2023-02-23T06:23:28;71.50;;;18.50;;
72728;SDS011;60843;52.062;4.508;2023-02-23T06:25:54;72.65;;;18.75;;
72728;SDS011;60843;52.062;4.508;2023-02-23T06:28:20;74.50;;;20.05;;
72728;SDS011;60843;52.062;4.508;2023-02-23T06:30:50;82.65;;;19.15;;
72728;SDS011;60843;52.062;4.508;2023-02-23T06:33:19;77.65;;;19.33;;
72728;SDS011;60843;52.062;4.508;2023-02-23T06:35:50;68.30;;;18.73;;
72728;SDS011;60843;52.062;4.508;2023-02-23T06:38:16;74.80;;;19.27;;
72728;SDS011;60843;52.062;4.508;2023-02-23T06:40:42;71.03;;;18.23;;
72728;SDS011;60843;52.062;4.508;2023-02-23T06:43:08;68.28;;;18.45;;
72728;SDS011;60843;52.062;4.508;2023-02-23T06:45:37;76.35;;;19.52;;
72728;SDS011;60843;52.062;4.508;2023-02-23T06:48:02;77.72;;;19.38;;
72728;SDS011;60843;52.062;4.508;2023-02-23T06:50:29;77.15;;;19.52;;
72728;SDS011;60843;52.062;4.508;2023-02-23T06:52:56;77.35;;;19.50;;
72728;SDS011;60843;52.062;4.508;2023-02-23T06:55:22;84.45;;;19.75;;
72728;SDS011;60843;52.062;4.508;2023-02-23T06:57:48;75.88;;;19.13;;
72728;SDS011;60843;52.062;4.508;2023-02-23T07:00:14;77.00;;;19.77;;
72728;SDS011;60843;52.062;4.508;2023-02-23T07:02:41;85.75;;;21.15;;
72728;SDS011;60843;52.062;4.508;2023-02-23T07:05:08;69.68;;;16.98;;
72728;SDS011;60843;52.062;4.508;2023-02-23T07:07:35;80.85;;;19.83;;
72728;SDS011;60843;52.062;4.508;2023-02-23T07:10:03;80.47;;;18.90;;
72728;SDS011;60843;52.062;4.508;2023-02-23T07:12:30;63.08;;;15.68;;
72728;SDS011;60843;52.062;4.508;2023-02-23T07:14:55;77.90;;;18.77;;
72728;SDS011;60843;52.062;4.508;2023-02-23T07:17:21;72.03;;;18.83;;
72728;SDS011;60843;52.062;4.508;2023-02-23T07:19:47;71.25;;;17.63;;
72728;SDS011;60843;52.062;4.508;2023-02-23T07:22:13;72.03;;;18.35;;
72728;SDS011;60843;52.062;4.508;2023-02-23T07:24:39;63.38;;;16.20;;
72728;SDS011;60843;52.062;4.508;2023-02-23T07:27:05;73.40;;;17.88;;
72728;SDS011;60843;52.062;4.508;2023-02-23T07:29:31;69.13;;;16.77;;
72728;SDS011;60843;52.062;4.508;2023-02-23T07:31:56;82.30;;;19.70;;
72728;SDS011;60843;52.062;4.508;2023-02-23T07:34:22;74.70;;;19.55;;
72728;SDS011;60843;52.062;4.508;2023-02-23T07:36:48;73.07;;;18.88;;
72728;SDS011;60843;52.062;4.508;2023-02-23T07:39:13;70.70;;;17.05;;
72728;SDS011;60843;52.062;4.508;2023-02-23T07:41:39;71.95;;;18.80;;
72728;SDS011;60843;52.062;4.508;2023-02-23T07:44:05;75.00;;;18.25;;
72728;SDS011;60843;52.062;4.508;2023-02-23T07:46:31;75.40;;;17.88;;
72728;SDS011;60843;52.062;4.508;2023-02-23T07:48:57;73.53;;;17.50;;
72728;SDS011;60843;52.062;4.508;2023-02-23T07:51:22;73.80;;;16.88;;
72728;SDS011;60843;52.062;4.508;2023-02-23T07:53:48;65.97;;;16.98;;
72728;SDS011;60843;52.062;4.508;2023-02-23T07:56:14;72.88;;;18.58;;
72728;SDS011;60843;52.062;4.508;2023-02-23T07:58:40;62.67;;;16.25;;
72728;SDS011;60843;52.062;4.508;2023-02-23T08:01:07;72.97;;;16.90;;
72728;SDS011;60843;52.062;4.508;2023-02-23T08:03:36;67.55;;;17.52;;
72728;SDS011;60843;52.062;4.508;2023-02-23T08:06:02;64.93;;;15.55;;
72728;SDS011;60843;52.062;4.508;2023-02-23T08:08:28;57.22;;;16.25;;
72728;SDS011;60843;52.062;4.508;2023-02-23T08:11:00;60.03;;;14.52;;
72728;SDS011;60843;52.062;4.508;2023-02-23T08:13:26;57.10;;;14.15;;
72728;SDS011;60843;52.062;4.508;2023-02-23T08:15:52;62.00;;;16.75;;
72728;SDS011;60843;52.062;4.508;2023-02-23T08:18:18;65.55;;;16.67;;
72728;SDS011;60843;52.062;4.508;2023-02-23T08:20:44;61.40;;;16.00;;
72728;SDS011;60843;52.062;4.508;2023-02-23T08:23:10;57.47;;;15.50;;
72728;SDS011;60843;52.062;4.508;2023-02-23T08:25:36;54.15;;;14.40;;
72728;SDS011;60843;52.062;4.508;2023-02-23T08:28:02;60.13;;;15.88;;
72728;SDS011;60843;52.062;4.508;2023-02-23T08:30:31;51.28;;;14.23;;
72728;SDS011;60843;52.062;4.508;2023-02-23T08:32:57;56.63;;;13.15;;
72728;SDS011;60843;52.062;4.508;2023-02-23T08:35:25;64.35;;;15.73;;
72728;SDS011;60843;52.062;4.508;2023-02-23T08:37:55;60.67;;;14.35;;
72728;SDS011;60843;52.062;4.508;2023-02-23T08:40:22;55.88;;;15.07;;
72728;SDS011;60843;52.062;4.508;2023-02-23T08:42:48;58.70;;;14.70;;
72728;SDS011;60843;52.062;4.508;2023-02-23T08:45:32;36.47;;;10.93;;
72728;SDS011;60843;52.062;4.508;2023-02-23T08:47:58;48.88;;;12.70;;
72728;SDS011;60843;52.062;4.508;2023-02-23T08:50:24;42.10;;;11.73;;
72728;SDS011;60843;52.062;4.508;2023-02-23T08:52:50;35.40;;;10.73;;
72728;SDS011;60843;52.062;4.508;2023-02-23T08:55:21;31.90;;;10.13;;
72728;SDS011;60843;52.062;4.508;2023-02-23T08:57:47;32.30;;;9.60;;
72728;SDS011;60843;52.062;4.508;2023-02-23T09:00:14;29.45;;;9.15;;
72728;SDS011;60843;52.062;4.508;2023-02-23T09:02:41;30.63;;;10.10;;
72728;SDS011;60843;52.062;4.508;2023-02-23T09:05:07;24.65;;;8.15;;
72728;SDS011;60843;52.062;4.508;2023-02-23T09:07:33;27.08;;;9.30;;
72728;SDS011;60843;52.062;4.508;2023-02-23T09:10:00;20.70;;;5.88;;
72728;SDS011;60843;52.062;4.508;2023-02-23T09:12:25;23.77;;;7.43;;
72728;SDS011;60843;52.062;4.508;2023-02-23T09:14:51;20.83;;;6.35;;
72728;SDS011;60843;52.062;4.508;2023-02-23T09:17:18;17.00;;;6.65;;
72728;SDS011;60843;52.062;4.508;2023-02-23T09:19:44;21.23;;;7.18;;
72728;SDS011;60843;52.062;4.508;2023-02-23T09:22:10;20.88;;;7.57;;
72728;SDS011;60843;52.062;4.508;2023-02-23T09:24:38;21.73;;;7.63;;
72728;SDS011;60843;52.062;4.508;2023-02-23T09:27:04;22.02;;;6.70;;
72728;SDS011;60843;52.062;4.508;2023-02-23T09:29:31;25.33;;;8.57;;
72728;SDS011;60843;52.062;4.508;2023-02-23T09:31:57;20.02;;;7.43;;
72728;SDS011;60843;52.062;4.508;2023-02-23T09:34:23;19.42;;;7.55;;
72728;SDS011;60843;52.062;4.508;2023-02-23T09:36:49;20.00;;;6.65;;
72728;SDS011;60843;52.062;4.508;2023-02-23T09:39:16;19.85;;;7.57;;
72728;SDS011;60843;52.062;4.508;2023-02-23T09:49:46;17.08;;;7.22;;
72728;SDS011;60843;52.062;4.508;2023-02-23T09:52:17;18.85;;;6.88;;
72728;SDS011;60843;52.062;4.508;2023-02-23T09:54:45;18.20;;;6.75;;
72728;SDS011;60843;52.062;4.508;2023-02-23T09:57:13;20.08;;;6.97;;
72728;SDS011;60843;52.062;4.508;2023-02-23T09:59:41;30.23;;;7.68;;
72728;SDS011;60843;52.062;4.508;2023-02-23T10:02:26;18.67;;;7.75;;
72728;SDS011;60843;52.062;4.508;2023-02-23T10:05:06;18.55;;;6.22;;
72728;SDS011;60843;52.062;4.508;2023-02-23T10:15:15;12.60;;;5.95;;
72728;SDS011;60843;52.062;4.508;2023-02-23T10:23:22;15.90;;;6.15;;
72728;SDS011;60843;52.062;4.508;2023-02-23T10:25:53;20.17;;;6.78;;
72728;SDS011;60843;52.062;4.508;2023-02-23T10:28:23;16.58;;;6.45;;
72728;SDS011;60843;52.062;4.508;2023-02-23T10:30:49;14.88;;;5.38;;
72728;SDS011;60843;52.062;4.508;2023-02-23T10:33:37;15.10;;;5.75;;
72728;SDS011;60843;52.062;4.508;2023-02-23T10:36:14;13.50;;;5.82;;
72728;SDS011;60843;52.062;4.508;2023-02-23T10:38:43;16.77;;;6.30;;
72728;SDS011;60843;52.062;4.508;2023-02-23T10:41:12;15.27;;;6.22;;
72728;SDS011;60843;52.062;4.508;2023-02-23T10:43:43;17.77;;;6.32;;
72728;SDS011;60843;52.062;4.508;2023-02-23T10:46:10;20.15;;;7.05;;
72728;SDS011;60843;52.062;4.508;2023-02-23T10:48:44;14.98;;;4.47;;
72728;SDS011;60843;52.062;4.508;2023-02-23T10:51:18;14.57;;;5.13;;
72728;SDS011;60843;52.062;4.508;2023-02-23T10:53:48;15.57;;;6.22;;
72728;SDS011;60843;52.062;4.508;2023-02-23T10:56:14;17.98;;;6.43;;
72728;SDS011;60843;52.062;4.508;2023-02-23T10:58:51;20.70;;;6.25;;
72728;SDS011;60843;52.062;4.508;2023-02-23T11:01:35;15.32;;;6.22;;
72728;SDS011;60843;52.062;4.508;2023-02-23T11:06:48;13.65;;;4.82;;
72728;SDS011;60843;52.062;4.508;2023-02-23T11:09:22;15.98;;;6.05;;
72728;SDS011;60843;52.062;4.508;2023-02-23T11:12:14;16.65;;;6.28;;
72728;SDS011;60843;52.062;4.508;2023-02-23T11:14:40;19.30;;;7.15;;
72728;SDS011;60843;52.062;4.508;2023-02-23T11:17:08;18.02;;;6.95;;
72728;SDS011;60843;52.062;4.508;2023-02-23T11:19:49;19.60;;;6.20;;
72728;SDS011;60843;52.062;4.508;2023-02-23T11:22:18;19.45;;;6.18;;
72728;SDS011;60843;52.062;4.508;2023-02-23T11:24:47;17.45;;;6.45;;
72728;SDS011;60843;52.062;4.508;2023-02-23T11:27:18;19.42;;;6.60;;
72728;SDS011;60843;52.062;4.508;2023-02-23T11:29:48;18.98;;;6.07;;
72728;SDS011;60843;52.062;4.508;2023-02-23T11:34:43;25.50;;;7.45;;
72728;SDS011;60843;52.062;4.508;2023-02-23T11:39:50;19.33;;;7.68;;
72728;SDS011;60843;52.062;4.508;2023-02-23T11:42:22;22.20;;;7.15;;
72728;SDS011;60843;52.062;4.508;2023-02-23T11:45:00;27.48;;;8.93;;
72728;SDS011;60843;52.062;4.508;2023-02-23T11:47:39;22.30;;;7.82;;
72728;SDS011;60843;52.062;4.508;2023-02-23T11:50:19;25.50;;;8.32;;
72728;SDS011;60843;52.062;4.508;2023-02-23T11:52:46;30.05;;;9.23;;
72728;SDS011;60843;52.062;4.508;2023-02-23T11:55:18;29.95;;;9.77;;
72728;SDS011;60843;52.062;4.508;2023-02-23T11:57:44;23.58;;;8.20;;
72728;SDS011;60843;52.062;4.508;2023-02-23T12:00:20;18.85;;;7.82;;
72728;SDS011;60843;52.062;4.508;2023-02-23T12:02:49;23.95;;;7.50;;
72728;SDS011;60843;52.062;4.508;2023-02-23T12:05:19;16.38;;;6.43;;
72728;SDS011;60843;52.062;4.508;2023-02-23T12:07:52;24.10;;;8.38;;
72728;SDS011;60843;52.062;4.508;2023-02-23T12:10:23;25.10;;;7.30;;
72728;SDS011;60843;52.062;4.508;2023-02-23T12:15:58;25.30;;;8.10;;
72728;SDS011;60843;52.062;4.508;2023-02-23T12:21:29;28.40;;;8.75;;
72728;SDS011;60843;52.062;4.508;2023-02-23T12:26:59;22.52;;;7.95;;
72728;SDS011;60843;52.062;4.508;2023-02-23T12:32:11;28.30;;;9.10;;
72728;SDS011;60843;52.062;4.508;2023-02-23T12:37:33;28.65;;;10.10;;
72728;SDS011;60843;52.062;4.508;2023-02-23T12:40:09;23.40;;;7.43;;
72728;SDS011;60843;52.062;4.508;2023-02-23T12:42:40;14.25;;;5.70;;
72728;SDS011;60843;52.062;4.508;2023-02-23T12:45:14;16.27;;;5.57;;
72728;SDS011;60843;52.062;4.508;2023-02-23T12:47:53;19.38;;;7.53;;
72728;SDS011;60843;52.062;4.508;2023-02-23T12:50:41;24.92;;;10.57;;
72728;SDS011;60843;52.062;4.508;2023-02-23T12:58:54;16.02;;;5.10;;
72728;SDS011;60843;52.062;4.508;2023-02-23T13:02:02;16.27;;;5.75;;
72728;SDS011;60843;52.062;4.508;2023-02-23T13:10:27;21.30;;;7.40;;
72728;SDS011;60843;52.062;4.508;2023-02-23T13:13:03;19.52;;;8.18;;
72728;SDS011;60843;52.062;4.508;2023-02-23T13:18:47;20.38;;;6.70;;
72728;SDS011;60843;52.062;4.508;2023-02-23T13:21:19;21.63;;;8.20;;
72728;SDS011;60843;52.062;4.508;2023-02-23T13:24:18;21.23;;;8.15;;
72728;SDS011;60843;52.062;4.508;2023-02-23T13:26:52;21.52;;;6.53;;
72728;SDS011;60843;52.062;4.508;2023-02-23T13:29:38;19.17;;;8.13;;
72728;SDS011;60843;52.062;4.508;2023-02-23T13:32:10;22.33;;;8.40;;
72728;SDS011;60843;52.062;4.508;2023-02-23T13:37:23;15.63;;;5.75;;
72728;SDS011;60843;52.062;4.508;2023-02-23T13:39:55;16.92;;;6.93;;
72728;SDS011;60843;52.062;4.508;2023-02-23T13:48:06;16.30;;;5.18;;
72728;SDS011;60843;52.062;4.508;2023-02-23T13:53:44;14.93;;;5.90;;
72728;SDS011;60843;52.062;4.508;2023-02-23T13:56:24;18.70;;;6.78;;
72728;SDS011;60843;52.062;4.508;2023-02-23T14:01:22;14.60;;;5.68;;
72728;SDS011;60843;52.062;4.508;2023-02-23T14:03:52;16.63;;;6.60;;
72728;SDS011;60843;52.062;4.508;2023-02-23T14:06:21;15.82;;;6.90;;
72728;SDS011;60843;52.062;4.508;2023-02-23T14:08:59;17.83;;;6.07;;
72728;SDS011;60843;52.062;4.508;2023-02-23T14:19:36;17.92;;;6.40;;
72728;SDS011;60843;52.062;4.508;2023-02-23T14:22:09;10.82;;;4.20;;
72728;SDS011;60843;52.062;4.508;2023-02-23T14:24:38;12.90;;;5.22;;
72728;SDS011;60843;52.062;4.508;2023-02-23T14:30:13;10.93;;;4.78;;
72728;SDS011;60843;52.062;4.508;2023-02-23T14:32:44;15.65;;;5.63;;
72728;SDS011;60843;52.062;4.508;2023-02-23T14:38:04;15.15;;;5.88;;
72728;SDS011;60843;52.062;4.508;2023-02-23T14:40:53;9.52;;;3.63;;
72728;SDS011;60843;52.062;4.508;2023-02-23T14:43:38;16.80;;;6.03;;
72728;SDS011;60843;52.062;4.508;2023-02-23T14:46:10;18.42;;;6.72;;
72728;SDS011;60843;52.062;4.508;2023-02-23T14:49:00;9.20;;;4.03;;
72728;SDS011;60843;52.062;4.508;2023-02-23T14:51:35;14.63;;;4.38;;
72728;SDS011;60843;52.062;4.508;2023-02-23T14:54:26;8.73;;;4.32;;
72728;SDS011;60843;52.062;4.508;2023-02-23T14:56:58;9.60;;;4.00;;
72728;SDS011;60843;52.062;4.508;2023-02-23T14:59:38;6.80;;;2.72;;
72728;SDS011;60843;52.062;4.508;2023-02-23T15:02:18;7.60;;;2.65;;
72728;SDS011;60843;52.062;4.508;2023-02-23T15:04:46;4.43;;;1.55;;
72728;SDS011;60843;52.062;4.508;2023-02-23T15:07:13;7.88;;;2.17;;
72728;SDS011;60843;52.062;4.508;2023-02-23T15:09:48;7.95;;;2.40;;
72728;SDS011;60843;52.062;4.508;2023-02-23T15:14:47;8.77;;;3.67;;
72728;SDS011;60843;52.062;4.508;2023-02-23T15:17:21;9.95;;;3.95;;
72728;SDS011;60843;52.062;4.508;2023-02-23T15:19:52;11.40;;;3.95;;
72728;SDS011;60843;52.062;4.508;2023-02-23T15:22:24;17.35;;;3.95;;
72728;SDS011;60843;52.062;4.508;2023-02-23T15:24:58;14.38;;;3.13;;
72728;SDS011;60843;52.062;4.508;2023-02-23T15:27:29;6.28;;;2.63;;
72728;SDS011;60843;52.062;4.508;2023-02-23T15:30:16;10.05;;;2.30;;
72728;SDS011;60843;52.062;4.508;2023-02-23T15:32:43;7.05;;;2.00;;
72728;SDS011;60843;52.062;4.508;2023-02-23T15:35:10;8.20;;;1.80;;
72728;SDS011;60843;52.062;4.508;2023-02-23T15:37:39;9.05;;;1.63;;
72728;SDS011;60843;52.062;4.508;2023-02-23T15:40:17;6.68;;;1.40;;
72728;SDS011;60843;52.062;4.508;2023-02-23T15:42:54;4.80;;;0.93;;
72728;SDS011;60843;52.062;4.508;2023-02-23T15:45:24;10.70;;;1.90;;
72728;SDS011;60843;52.062;4.508;2023-02-23T15:48:05;5.82;;;1.35;;
72728;SDS011;60843;52.062;4.508;2023-02-23T15:50:33;9.23;;;1.58;;
72728;SDS011;60843;52.062;4.508;2023-02-23T15:53:05;6.50;;;1.20;;
72728;SDS011;60843;52.062;4.508;2023-02-23T15:55:37;6.93;;;0.98;;
72728;SDS011;60843;52.062;4.508;2023-02-23T16:00:55;7.60;;;1.95;;
72728;SDS011;60843;52.062;4.508;2023-02-23T16:03:29;11.68;;;2.90;;
72728;SDS011;60843;52.062;4.508;2023-02-23T16:10:54;12.43;;;1.98;;
72728;SDS011;60843;52.062;4.508;2023-02-23T16:13:41;7.35;;;1.70;;
72728;SDS011;60843;52.062;4.508;2023-02-23T16:16:07;8.52;;;1.45;;
72728;SDS011;60843;52.062;4.508;2023-02-23T16:18:39;11.80;;;1.88;;
72728;SDS011;60843;52.062;4.508;2023-02-23T16:21:05;13.27;;;2.13;;
72728;SDS011;60843;52.062;4.508;2023-02-23T16:26:09;10.02;;;0.93;;
72728;SDS011;60843;52.062;4.508;2023-02-23T16:28:39;14.15;;;1.73;;
72728;SDS011;60843;52.062;4.508;2023-02-23T16:31:07;12.45;;;1.95;;
72728;SDS011;60843;52.062;4.508;2023-02-23T16:33:50;12.95;;;1.83;;
72728;SDS011;60843;52.062;4.508;2023-02-23T16:36:20;13.70;;;1.98;;
72728;SDS011;60843;52.062;4.508;2023-02-23T16:41:17;17.75;;;2.10;;
72728;SDS011;60843;52.062;4.508;2023-02-23T16:46:12;10.00;;;1.23;;
72728;SDS011;60843;52.062;4.508;2023-02-23T16:48:38;21.67;;;3.17;;
72728;SDS011;60843;52.062;4.508;2023-02-23T16:51:08;10.82;;;1.42;;
72728;SDS011;60843;52.062;4.508;2023-02-23T16:53:37;10.43;;;2.05;;
72728;SDS011;60843;52.062;4.508;2023-02-23T16:56:04;30.05;;;3.60;;
72728;SDS011;60843;52.062;4.508;2023-02-23T16:58:36;21.50;;;2.92;;
72728;SDS011;60843;52.062;4.508;2023-02-23T17:01:02;15.88;;;2.38;;
72728;SDS011;60843;52.062;4.508;2023-02-23T17:03:28;21.42;;;2.90;;
72728;SDS011;60843;52.062;4.508;2023-02-23T17:05:54;10.95;;;1.50;;
72728;SDS011;60843;52.062;4.508;2023-02-23T17:08:20;15.35;;;1.58;;
72728;SDS011;60843;52.062;4.508;2023-02-23T17:10:47;27.40;;;2.72;;
72728;SDS011;60843;52.062;4.508;2023-02-23T17:13:17;14.55;;;2.10;;
72728;SDS011;60843;52.062;4.508;2023-02-23T17:15:44;12.85;;;2.78;;
72728;SDS011;60843;52.062;4.508;2023-02-23T17:18:18;16.90;;;2.13;;
72728;SDS011;60843;52.062;4.508;2023-02-23T17:20:44;25.77;;;3.55;;
72728;SDS011;60843;52.062;4.508;2023-02-23T17:23:10;27.67;;;3.53;;
72728;SDS011;60843;52.062;4.508;2023-02-23T17:25:35;27.17;;;3.10;;
72728;SDS011;60843;52.062;4.508;2023-02-23T17:28:01;12.13;;;2.10;;